createdAt,value
2023-06-11T00:01:53.818Z,89.46
2023-06-11T00:04:26.583Z,89.80
2023-06-11T00:07:02.155Z,91.18
2023-06-11T00:09:29.191Z,90.16
2023-06-11T00:11:55.959Z,91.37
2023-06-11T00:14:23.303Z,92.43
2023-06-11T00:16:50.306Z,92.04
2023-06-11T00:19:18.414Z,91.08
2023-06-11T00:21:45.272Z,90.88
2023-06-11T00:24:15.591Z,90.85
2023-06-11T00:26:42.622Z,89.56
2023-06-11T00:29:09.533Z,89.29
2023-06-11T00:31:36.252Z,88.91
2023-06-11T00:34:03.086Z,89.49
2023-06-11T00:36:30.829Z,90.21
2023-06-11T00:38:57.774Z,90.24
2023-06-11T00:41:31.039Z,90.14
2023-06-11T00:43:58.282Z,91.40
2023-06-11T00:46:25.752Z,90.71
2023-06-11T00:48:52.693Z,90.65
2023-06-11T00:51:19.424Z,90.93
2023-06-11T00:53:46.164Z,91.76
2023-06-11T00:56:12.825Z,93.29
2023-06-11T00:58:41.039Z,93.74
2023-06-11T01:01:07.788Z,93.01
2023-06-11T01:03:35.955Z,92.47
2023-06-11T01:06:12.839Z,92.38
2023-06-11T01:08:40.736Z,92.01
2023-06-11T01:11:14.920Z,91.58
2023-06-11T01:13:41.743Z,91.30
2023-06-11T01:16:13.124Z,91.33
2023-06-11T01:18:45.939Z,92.29
2023-06-11T01:21:18.383Z,90.26
2023-06-11T01:23:52.722Z,91.42
2023-06-11T01:26:40.987Z,90.53
2023-06-11T01:29:09.394Z,91.24
2023-06-11T01:31:38.790Z,92.06
2023-06-11T01:34:05.643Z,92.16
2023-06-11T01:36:35.753Z,91.51
2023-06-11T01:39:03.156Z,92.35
2023-06-11T01:41:29.888Z,91.52
2023-06-11T01:43:56.724Z,91.33
2023-06-11T01:46:23.649Z,91.19
2023-06-11T01:48:50.600Z,91.81
2023-06-11T01:51:17.311Z,92.16
2023-06-11T01:53:44.275Z,90.56
2023-06-11T01:56:11.279Z,91.30
2023-06-11T01:58:38.479Z,91.12
2023-06-11T02:01:05.281Z,91.75
2023-06-11T02:03:32.255Z,91.60
2023-06-11T02:05:59.133Z,92.37
2023-06-11T02:08:27.612Z,92.30
2023-06-11T02:10:54.858Z,91.63
2023-06-11T02:13:21.658Z,92.13
2023-06-11T02:15:48.434Z,92.07
2023-06-11T02:18:15.436Z,91.74
2023-06-11T02:20:42.126Z,91.92
2023-06-11T02:23:08.997Z,91.63
2023-06-11T02:25:35.829Z,92.45
2023-06-11T02:28:03.341Z,91.48
2023-06-11T02:30:29.982Z,91.82
2023-06-11T02:32:56.963Z,93.97
2023-06-11T02:35:23.681Z,93.93
2023-06-11T02:37:50.564Z,92.18
2023-06-11T02:40:17.312Z,91.88
2023-06-11T02:42:44.044Z,91.34
2023-06-11T02:45:11.449Z,91.15
2023-06-11T02:47:38.412Z,91.64
2023-06-11T02:50:05.785Z,90.36
2023-06-11T02:52:32.628Z,90.63
2023-06-11T02:54:59.335Z,91.85
2023-06-11T02:57:26.206Z,91.98
2023-06-11T02:59:53.023Z,91.12
2023-06-11T03:02:19.929Z,91.39
2023-06-11T03:04:46.641Z,91.14
2023-06-11T03:07:13.545Z,90.72
2023-06-11T03:09:40.455Z,91.21
2023-06-11T03:12:08.296Z,91.61
2023-06-11T03:14:35.036Z,93.54
2023-06-11T03:17:02.141Z,94.51
2023-06-11T03:19:28.837Z,93.52
2023-06-11T03:21:55.890Z,92.62
2023-06-11T03:24:22.829Z,91.24
2023-06-11T03:26:49.557Z,91.01
2023-06-11T03:29:16.337Z,91.11
2023-06-11T03:31:43.141Z,93.30
2023-06-11T03:34:09.916Z,94.07
2023-06-11T03:36:37.585Z,94.09
2023-06-11T03:39:04.498Z,93.49
2023-06-11T03:41:31.490Z,92.19
2023-06-11T03:43:58.279Z,91.28
2023-06-11T03:46:25.156Z,90.14
2023-06-11T03:48:51.821Z,90.59
2023-06-11T03:51:18.526Z,90.35
2023-06-11T03:53:45.300Z,90.91
2023-06-11T03:56:11.985Z,90.74
2023-06-11T03:58:38.701Z,89.61
2023-06-11T04:01:05.519Z,89.57
2023-06-11T04:03:32.317Z,90.84
2023-06-11T04:05:59.179Z,90.77
2023-06-11T04:08:26.245Z,90.27
2023-06-11T04:10:53.523Z,90.85
2023-06-11T04:13:20.416Z,89.61
2023-06-11T04:15:47.133Z,91.03
2023-06-11T04:18:13.920Z,90.39
2023-06-11T04:20:40.723Z,89.19
2023-06-11T04:23:07.826Z,89.85
2023-06-11T04:25:37.625Z,91.75
2023-06-11T04:28:04.557Z,91.92
2023-06-11T04:30:32.699Z,91.03
2023-06-11T04:32:59.644Z,90.38
2023-06-11T04:35:26.450Z,89.50
2023-06-11T04:37:53.939Z,89.00
2023-06-11T04:40:20.721Z,89.56
2023-06-11T04:42:47.580Z,89.92
2023-06-11T04:45:14.431Z,89.68
2023-06-11T04:47:41.898Z,88.76
2023-06-11T04:50:09.232Z,89.23
2023-06-11T04:52:44.180Z,89.11
2023-06-11T04:55:14.424Z,90.73
2023-06-11T04:57:41.580Z,90.85
2023-06-11T05:00:10.098Z,91.31
2023-06-11T05:02:38.835Z,92.16
2023-06-11T05:05:06.867Z,92.64
2023-06-11T05:07:34.122Z,92.92
2023-06-11T05:10:01.148Z,92.26
2023-06-11T05:12:27.921Z,93.29
2023-06-11T05:14:54.565Z,91.94
2023-06-11T05:17:21.379Z,91.32
2023-06-11T05:19:48.212Z,90.01
2023-06-11T05:22:14.881Z,91.05
2023-06-11T05:24:44.022Z,91.20
2023-06-11T05:27:10.846Z,92.53
2023-06-11T05:29:39.134Z,91.63
2023-06-11T05:32:06.873Z,91.32
2023-06-11T05:34:34.388Z,89.22
2023-06-11T05:37:02.285Z,90.85
2023-06-11T05:39:29.056Z,88.67
2023-06-11T05:41:55.856Z,87.40
2023-06-11T05:44:22.585Z,88.90
2023-06-11T05:46:49.333Z,90.97
2023-06-11T05:49:16.065Z,92.03
2023-06-11T05:51:42.775Z,90.62
2023-06-11T05:54:09.428Z,88.88
2023-06-11T05:56:36.144Z,88.87
2023-06-11T05:59:02.914Z,86.78
2023-06-11T06:01:29.814Z,86.91
2023-06-11T06:03:56.716Z,87.09
2023-06-11T06:06:23.575Z,85.38
2023-06-11T06:08:50.239Z,84.10
2023-06-11T06:11:17.025Z,82.86
2023-06-11T06:13:44.563Z,81.03
2023-06-11T06:16:11.414Z,83.55
2023-06-11T06:18:40.107Z,83.30
2023-06-11T06:21:06.981Z,82.27
2023-06-11T06:23:33.769Z,82.51
2023-06-11T06:26:00.516Z,81.14
2023-06-11T06:28:27.264Z,82.97
2023-06-11T06:30:54.066Z,82.91
2023-06-11T06:33:20.886Z,83.40
2023-06-11T06:35:47.667Z,82.64
2023-06-11T06:38:14.497Z,82.15
2023-06-11T06:40:41.462Z,80.42
2023-06-11T06:43:08.273Z,81.27
2023-06-11T06:45:36.118Z,81.22
2023-06-11T06:48:03.192Z,81.22
2023-06-11T06:50:30.180Z,80.80
2023-06-11T06:52:56.829Z,79.37
2023-06-11T06:55:23.551Z,78.31
2023-06-11T06:57:50.286Z,80.46
2023-06-11T07:00:18.679Z,80.02
2023-06-11T07:02:45.521Z,80.02
2023-06-11T07:05:12.598Z,78.97
2023-06-11T07:07:41.734Z,79.82
2023-06-11T07:10:10.809Z,79.37
2023-06-11T07:12:37.804Z,79.23
2023-06-11T07:15:05.376Z,80.15
2023-06-11T07:17:32.235Z,79.92
2023-06-11T07:19:59.127Z,79.21
2023-06-11T07:22:25.848Z,78.87
2023-06-11T07:24:52.609Z,78.48
2023-06-11T07:27:19.299Z,79.48
2023-06-11T07:29:45.975Z,80.21
2023-06-11T07:32:12.688Z,80.92
2023-06-11T07:34:40.347Z,80.75
2023-06-11T07:37:07.281Z,82.49
2023-06-11T07:39:34.246Z,82.81
2023-06-11T07:42:00.978Z,82.45
2023-06-11T07:44:27.798Z,81.43
2023-06-11T07:46:54.487Z,79.90
2023-06-11T07:49:21.207Z,79.24
2023-06-11T07:51:47.936Z,79.44
2023-06-11T07:54:14.732Z,78.40
2023-06-11T07:56:41.537Z,75.79
2023-06-11T07:59:08.270Z,75.98
2023-06-11T08:01:35.049Z,74.84
2023-06-11T08:04:01.825Z,74.08
2023-06-11T08:06:28.773Z,71.99
2023-06-11T08:08:57.477Z,71.85
2023-06-11T08:11:24.291Z,71.88
2023-06-11T08:13:51.055Z,72.48
2023-06-11T08:16:18.912Z,72.01
2023-06-11T08:18:45.601Z,71.39
2023-06-11T08:21:12.386Z,73.74
2023-06-11T08:23:39.970Z,74.34
2023-06-11T08:26:06.787Z,76.02
2023-06-11T08:28:33.520Z,74.41
2023-06-11T08:31:00.278Z,75.23
2023-06-11T08:33:27.076Z,74.87
2023-06-11T08:35:53.866Z,73.16
2023-06-11T08:38:20.607Z,71.91
2023-06-11T08:40:47.312Z,72.79
2023-06-11T08:43:14.149Z,73.43
2023-06-11T08:45:41.626Z,72.42
2023-06-11T08:48:08.592Z,70.40
2023-06-11T08:50:35.404Z,69.80
2023-06-11T08:53:03.786Z,66.35
2023-06-11T08:55:30.738Z,62.40
2023-06-11T08:57:57.765Z,63.42
2023-06-11T09:00:24.511Z,63.03
2023-06-11T09:02:51.328Z,62.35
2023-06-11T09:05:18.152Z,59.14
2023-06-11T09:07:51.609Z,59.56
2023-06-11T09:10:18.405Z,60.06
2023-06-11T09:12:45.511Z,57.75
2023-06-11T09:15:13.612Z,57.45
2023-06-11T09:17:44.610Z,58.65
2023-06-11T09:20:13.209Z,60.38
2023-06-11T09:22:41.574Z,58.35
2023-06-11T09:25:12.602Z,58.14
2023-06-11T09:27:40.094Z,55.75
2023-06-11T09:30:27.867Z,55.96
2023-06-11T09:32:54.695Z,57.46
2023-06-11T09:35:22.487Z,50.85
2023-06-11T09:37:51.634Z,49.92
2023-06-11T09:40:20.715Z,50.65
2023-06-11T09:42:48.604Z,50.66
2023-06-11T09:45:17.508Z,45.64
2023-06-11T09:47:46.242Z,48.52
2023-06-11T09:50:19.480Z,46.62
2023-06-11T09:52:46.530Z,44.99
2023-06-11T09:55:13.664Z,46.36
2023-06-11T09:57:41.471Z,45.59
2023-06-11T10:00:11.332Z,44.87
2023-06-11T10:02:41.856Z,42.39
2023-06-11T10:05:09.746Z,44.08
2023-06-11T10:07:47.476Z,42.83
2023-06-11T10:10:17.125Z,43.80
2023-06-11T10:12:52.350Z,40.85
2023-06-11T10:15:19.819Z,42.64
2023-06-11T10:17:50.863Z,45.89
2023-06-11T10:20:28.585Z,44.89
2023-06-11T10:23:11.001Z,44.02
2023-06-11T10:25:40.940Z,39.70
2023-06-11T10:28:08.708Z,39.39
2023-06-11T10:30:35.634Z,40.31
2023-06-11T10:33:02.420Z,42.43
2023-06-11T10:35:33.842Z,39.46
2023-06-11T10:38:07.250Z,44.26
2023-06-11T10:40:38.000Z,40.95
2023-06-11T10:43:20.696Z,38.98
2023-06-11T10:45:49.896Z,40.44
2023-06-11T10:48:18.742Z,41.00
2023-06-11T10:50:45.446Z,39.71
2023-06-11T10:53:14.582Z,40.78
2023-06-11T10:55:45.196Z,41.35
2023-06-11T10:58:24.253Z,40.34
2023-06-11T11:00:52.925Z,43.62
2023-06-11T11:03:22.998Z,43.49
2023-06-11T11:05:53.548Z,44.04
2023-06-11T11:08:24.874Z,44.31
2023-06-11T11:10:56.813Z,42.19
2023-06-11T11:13:23.952Z,39.72
2023-06-11T11:15:51.488Z,40.82
2023-06-11T11:18:18.385Z,40.37
2023-06-11T11:20:46.058Z,41.38
2023-06-11T11:23:12.766Z,39.23
2023-06-11T11:25:40.086Z,39.91
2023-06-11T11:28:07.122Z,39.94
2023-06-11T11:30:33.898Z,44.00
2023-06-11T11:33:00.748Z,42.23
2023-06-11T11:35:29.880Z,42.54
2023-06-11T11:37:56.684Z,41.46
2023-06-11T11:40:23.506Z,43.47
2023-06-11T11:42:51.208Z,40.38
2023-06-11T11:45:18.666Z,39.99
2023-06-11T11:47:47.666Z,39.95
2023-06-11T11:50:35.924Z,40.58
2023-06-11T11:53:07.487Z,39.16
2023-06-11T11:55:51.589Z,39.70
2023-06-11T11:58:23.317Z,40.48
2023-06-11T12:00:52.058Z,40.76
2023-06-11T12:03:22.537Z,42.81
2023-06-11T12:06:16.115Z,45.80
2023-06-11T12:08:43.059Z,48.32
2023-06-11T12:11:09.814Z,48.98
2023-06-11T12:13:36.647Z,50.10
2023-06-11T12:16:05.220Z,49.28
2023-06-11T12:18:33.573Z,48.26
2023-06-11T12:21:00.268Z,49.90
2023-06-11T12:23:27.200Z,50.56
2023-06-11T12:25:54.021Z,51.30
2023-06-11T12:28:21.248Z,49.60
2023-06-11T12:30:48.021Z,48.17
2023-06-11T12:33:17.098Z,46.77
2023-06-11T12:35:45.380Z,48.99
2023-06-11T12:38:12.266Z,47.74
2023-06-11T12:40:38.858Z,49.09
2023-06-11T12:43:05.529Z,50.31
2023-06-11T12:45:36.765Z,48.74
2023-06-11T12:48:04.074Z,48.04
2023-06-11T12:50:30.918Z,48.88
2023-06-11T12:52:57.962Z,47.69
2023-06-11T12:55:25.778Z,47.53
2023-06-11T12:57:52.696Z,45.71
2023-06-11T13:00:19.856Z,45.33
2023-06-11T13:02:46.617Z,45.47
2023-06-11T13:05:13.659Z,44.42
2023-06-11T13:07:40.504Z,45.75
2023-06-11T13:10:07.616Z,44.63
2023-06-11T13:12:34.444Z,43.40
2023-06-11T13:15:01.208Z,44.48
2023-06-11T13:17:28.212Z,44.74
2023-06-11T13:19:58.579Z,46.09
2023-06-11T13:22:25.453Z,45.87
2023-06-11T13:24:52.902Z,45.58
2023-06-11T13:27:19.716Z,47.05
2023-06-11T13:29:46.730Z,47.51
2023-06-11T13:32:13.577Z,45.67
2023-06-11T13:34:40.414Z,49.61
2023-06-11T13:37:07.529Z,48.45
2023-06-11T13:39:34.490Z,47.92
2023-06-11T13:42:01.711Z,48.33
2023-06-11T13:44:28.658Z,49.24
2023-06-11T13:46:55.645Z,50.01
2023-06-11T13:49:24.161Z,49.79
2023-06-11T13:51:51.953Z,48.30
2023-06-11T13:54:21.577Z,50.24
2023-06-11T13:56:48.347Z,49.59
2023-06-11T13:59:15.054Z,50.04
2023-06-11T14:01:41.832Z,49.89
2023-06-11T14:04:11.613Z,50.46
2023-06-11T14:06:38.241Z,48.97
2023-06-11T14:09:05.469Z,48.42
2023-06-11T14:11:32.358Z,48.63
2023-06-11T14:13:59.548Z,47.30
2023-06-11T14:16:26.727Z,45.95
2023-06-11T14:18:53.593Z,46.00
2023-06-11T14:21:20.453Z,44.45
2023-06-11T14:23:47.782Z,46.16
2023-06-11T14:26:14.502Z,46.57
2023-06-11T14:28:41.086Z,48.73
2023-06-11T14:31:07.812Z,48.07
2023-06-11T14:33:34.509Z,48.35
2023-06-11T14:36:06.038Z,49.08
2023-06-11T14:38:36.033Z,50.50
2023-06-11T14:41:02.775Z,51.33
2023-06-11T14:43:29.540Z,50.56
2023-06-11T14:45:56.282Z,50.29
2023-06-11T14:48:23.064Z,50.05
2023-06-11T14:50:49.745Z,50.62
2023-06-11T14:53:16.482Z,49.73
2023-06-11T14:55:44.019Z,50.42
2023-06-11T14:58:10.788Z,49.79
2023-06-11T15:00:37.473Z,50.87
2023-06-11T15:03:04.261Z,50.36
2023-06-11T15:05:31.078Z,50.59
2023-06-11T15:07:57.793Z,51.00
2023-06-11T15:10:25.291Z,51.17
2023-06-11T15:12:52.114Z,52.45
2023-06-11T15:15:18.962Z,53.08
2023-06-11T15:17:45.789Z,52.30
2023-06-11T15:20:12.853Z,52.25
2023-06-11T15:22:41.701Z,54.05
2023-06-11T15:25:10.312Z,52.67
2023-06-11T15:27:37.161Z,54.31
2023-06-11T15:30:04.966Z,54.58
2023-06-11T15:32:31.839Z,55.37
2023-06-11T15:34:58.793Z,55.10
2023-06-11T15:37:25.578Z,54.75
2023-06-11T15:39:52.404Z,55.10
2023-06-11T15:42:19.472Z,54.91
2023-06-11T15:44:46.437Z,55.10
2023-06-11T15:47:13.301Z,56.20
2023-06-11T15:49:40.053Z,55.40
2023-06-11T15:52:07.248Z,57.52
2023-06-11T15:54:34.364Z,58.26
2023-06-11T15:57:01.732Z,57.73
2023-06-11T15:59:28.598Z,56.29
2023-06-11T16:01:55.399Z,56.91
2023-06-11T16:04:24.456Z,57.06
2023-06-11T16:06:51.258Z,55.95
2023-06-11T16:09:18.073Z,56.85
2023-06-11T16:11:44.874Z,56.42
2023-06-11T16:14:11.764Z,57.64
2023-06-11T16:16:38.733Z,57.92
2023-06-11T16:19:05.668Z,56.00
2023-06-11T16:21:32.455Z,57.30
2023-06-11T16:23:59.273Z,57.85
2023-06-11T16:26:26.958Z,57.65
2023-06-11T16:28:56.314Z,57.74
2023-06-11T16:31:23.431Z,57.92
2023-06-11T16:33:58.430Z,57.25
2023-06-11T16:36:27.114Z,58.21
2023-06-11T16:38:53.847Z,58.73
2023-06-11T16:41:22.050Z,57.74
2023-06-11T16:43:52.113Z,58.30
2023-06-11T16:46:19.336Z,58.19
2023-06-11T16:48:47.014Z,57.82
2023-06-11T16:51:14.245Z,58.28
2023-06-11T16:53:42.111Z,59.25
2023-06-11T16:56:08.772Z,58.60
2023-06-11T16:58:35.862Z,58.29
2023-06-11T17:01:02.642Z,58.45
2023-06-11T17:03:29.354Z,59.52
2023-06-11T17:05:56.149Z,59.93
2023-06-11T17:08:22.917Z,58.97
2023-06-11T17:10:49.631Z,59.59
2023-06-11T17:13:16.349Z,59.93
2023-06-11T17:15:43.007Z,57.74
2023-06-11T17:18:09.748Z,59.64
2023-06-11T17:20:40.611Z,61.66
2023-06-11T17:23:11.434Z,59.40
2023-06-11T17:25:38.135Z,59.43
2023-06-11T17:28:05.053Z,59.29
2023-06-11T17:30:31.970Z,60.05
2023-06-11T17:33:00.576Z,59.34
2023-06-11T17:35:27.936Z,59.94
2023-06-11T17:37:56.656Z,60.26
2023-06-11T17:40:28.656Z,60.85
2023-06-11T17:42:58.813Z,62.21
2023-06-11T17:45:26.764Z,60.57
2023-06-11T17:47:54.711Z,60.24
2023-06-11T17:50:21.803Z,60.75
2023-06-11T17:52:48.494Z,61.90
2023-06-11T17:55:15.580Z,60.98
2023-06-11T17:57:46.786Z,61.24
2023-06-11T18:00:14.854Z,62.32
2023-06-11T18:02:41.997Z,62.34
2023-06-11T18:05:09.288Z,61.67
2023-06-11T18:07:36.561Z,61.95
2023-06-11T18:10:03.842Z,61.77
2023-06-11T18:12:30.900Z,62.83
2023-06-11T18:14:57.507Z,63.27
2023-06-11T18:17:25.515Z,63.26
2023-06-11T18:19:52.475Z,65.23
2023-06-11T18:22:24.374Z,65.83
2023-06-11T18:24:51.244Z,67.35
2023-06-11T18:27:18.004Z,69.17
2023-06-11T18:29:44.858Z,68.14
2023-06-11T18:32:11.922Z,69.07
2023-06-11T18:34:38.757Z,68.31
2023-06-11T18:37:05.905Z,68.30
2023-06-11T18:39:32.696Z,67.78
2023-06-11T18:42:01.725Z,69.38
2023-06-11T18:44:28.593Z,68.59
2023-06-11T18:47:01.631Z,68.25
2023-06-11T18:49:29.786Z,70.07
2023-06-11T18:51:56.486Z,71.21
2023-06-11T18:54:23.286Z,72.04
2023-06-11T18:56:50.020Z,71.80
2023-06-11T18:59:18.634Z,71.13
2023-06-11T19:01:45.418Z,72.88
2023-06-11T19:04:12.412Z,72.65
2023-06-11T19:06:39.187Z,72.25
2023-06-11T19:09:06.026Z,71.62
2023-06-11T19:11:32.702Z,70.85
2023-06-11T19:13:59.415Z,70.63
2023-06-11T19:16:26.208Z,71.11
2023-06-11T19:18:52.917Z,71.54
2023-06-11T19:21:24.042Z,72.54
2023-06-11T19:23:50.835Z,72.23
2023-06-11T19:26:17.689Z,72.57
2023-06-11T19:28:44.399Z,71.53
2023-06-11T19:31:11.137Z,71.39
2023-06-11T19:33:38.792Z,71.32
2023-06-11T19:36:05.825Z,70.54
2023-06-11T19:38:32.682Z,70.61
2023-06-11T19:40:59.299Z,71.39
2023-06-11T19:43:26.183Z,71.29
2023-06-11T19:45:52.964Z,71.72
2023-06-11T19:48:22.087Z,71.92
2023-06-11T19:50:48.923Z,71.92
2023-06-11T19:53:15.749Z,72.86
2023-06-11T19:55:45.266Z,72.71
2023-06-11T19:58:12.134Z,73.13
2023-06-11T20:00:38.769Z,73.26
2023-06-11T20:03:05.523Z,75.02
2023-06-11T20:05:33.642Z,75.60
2023-06-11T20:08:02.228Z,76.69
2023-06-11T20:10:30.198Z,76.52
2023-06-11T20:12:56.853Z,75.92
2023-06-11T20:15:23.530Z,76.11
2023-06-11T20:17:50.396Z,75.92
2023-06-11T20:20:17.262Z,75.21
2023-06-11T20:22:43.878Z,75.22
2023-06-11T20:25:10.649Z,74.54
2023-06-11T20:27:37.580Z,74.01
2023-06-11T20:30:04.589Z,74.29
2023-06-11T20:32:31.430Z,75.37
2023-06-11T20:34:58.087Z,75.65
2023-06-11T20:37:24.815Z,76.04
2023-06-11T20:39:51.565Z,78.60
2023-06-11T20:42:18.452Z,77.56
2023-06-11T20:44:45.163Z,77.62
2023-06-11T20:47:12.244Z,77.04
2023-06-11T20:49:39.088Z,75.38
2023-06-11T20:52:06.527Z,75.18
2023-06-11T20:54:33.262Z,75.58
2023-06-11T20:56:59.891Z,76.50
2023-06-11T20:59:26.555Z,77.17
2023-06-11T21:01:53.366Z,77.16
2023-06-11T21:04:20.207Z,77.70
2023-06-11T21:06:46.950Z,78.59
2023-06-11T21:09:13.610Z,77.11
2023-06-11T21:11:40.309Z,78.03
2023-06-11T21:14:14.093Z,80.17
2023-06-11T21:16:41.721Z,79.83
2023-06-11T21:19:08.468Z,83.51
2023-06-11T21:21:35.305Z,84.56
2023-06-11T21:24:03.612Z,85.17
2023-06-11T21:26:30.463Z,86.99
2023-06-11T21:28:57.810Z,87.87
2023-06-11T21:31:24.666Z,88.77
2023-06-11T21:33:51.354Z,87.83
2023-06-11T21:36:18.357Z,85.75
2023-06-11T21:38:45.013Z,83.77
2023-06-11T21:41:11.733Z,83.10
2023-06-11T21:43:38.440Z,82.37
2023-06-11T21:46:05.197Z,82.38
2023-06-11T21:48:31.906Z,84.34
2023-06-11T21:50:58.570Z,84.75
2023-06-11T21:53:25.387Z,82.81
2023-06-11T21:55:52.150Z,84.58
2023-06-11T21:58:18.848Z,84.94
2023-06-11T22:00:45.847Z,83.51
2023-06-11T22:03:15.422Z,83.88
2023-06-11T22:05:42.145Z,84.64
2023-06-11T22:08:08.859Z,84.33
2023-06-11T22:10:35.500Z,84.93
2023-06-11T22:13:02.158Z,85.48
2023-06-11T22:15:28.882Z,85.36
2023-06-11T22:17:55.678Z,85.01
2023-06-11T22:20:26.415Z,85.30
2023-06-11T22:22:53.167Z,84.83
2023-06-11T22:25:19.900Z,82.99
2023-06-11T22:27:47.170Z,82.16
2023-06-11T22:30:14.306Z,82.30
2023-06-11T22:32:41.384Z,83.03
2023-06-11T22:35:08.631Z,83.64
2023-06-11T22:37:37.288Z,84.85
2023-06-11T22:40:06.079Z,86.12
2023-06-11T22:42:33.281Z,86.57
2023-06-11T22:44:59.943Z,86.81
2023-06-11T22:47:30.121Z,85.77
2023-06-11T22:49:57.564Z,87.66
2023-06-11T22:52:24.355Z,86.66
2023-06-11T22:54:51.121Z,85.44
2023-06-11T22:57:17.749Z,86.19
2023-06-11T22:59:44.422Z,84.22
2023-06-11T23:02:11.251Z,83.32
2023-06-11T23:04:40.441Z,83.52
2023-06-11T23:07:07.772Z,85.04
2023-06-11T23:09:34.466Z,85.72
2023-06-11T23:12:01.415Z,86.61
2023-06-11T23:14:28.185Z,84.42
2023-06-11T23:16:59.540Z,83.08
2023-06-11T23:19:26.906Z,82.36
2023-06-11T23:21:57.492Z,82.08
2023-06-11T23:24:27.674Z,83.75
2023-06-11T23:26:57.606Z,85.25
2023-06-11T23:29:24.910Z,88.05
2023-06-11T23:31:51.854Z,87.14
2023-06-11T23:34:18.768Z,87.08
2023-06-11T23:36:45.858Z,87.46
2023-06-11T23:39:12.616Z,86.46
2023-06-11T23:41:39.412Z,84.03
2023-06-11T23:44:06.244Z,83.81
2023-06-11T23:46:36.568Z,82.58
2023-06-11T23:49:03.548Z,84.41
2023-06-11T23:51:31.251Z,85.13
2023-06-11T23:53:58.500Z,86.79
2023-06-11T23:56:25.763Z,86.33
2023-06-11T23:58:52.452Z,86.79
